Other Surface Observations
Issued by NWS Missoula, MT

Home | Current Version | Previous Version | Text Only | Print | Product List | Glossary On
Versions: 1 2 3 4 5 6 7 8 9 10 11 12 13 14 15 16 17 18 19 20 21 22 23 24 25 26 27 28 29 30 31 32 33 34 35 36 37 38 39 40 41 42 43 44 45 46 47 48 49 50
129
SXUS55 KMSO 241643
OSOMSO
MONTANA AWOS SUMMARY
NATIONAL WEATHER SERVICE MISSOULA MT
1043 AM MDT SUN JUL 24 2016

Montana AWOS Reports

LAUREL      |K6S8 241635Z AUTO 00000KT 40SM 23/09 A3011 RMK AO1 T02330089
TWIN BRIDGES|K7S1 241635Z AUTO 00000KT 40SM 19/05 A3018 RMK AO1 T01940050
ROUNDUP     |KRPX 241635Z AUTO 18004KT 40SM 23/07 A3002 RMK AO1 T02330072




USA.gov is the U.S. government's official web portal to all federal, state and local government web resources and services.